createdAt,value
2018-05-14T00:02:02.604Z,16.03
2018-05-14T00:04:30.156Z,15.67
2018-05-14T00:06:57.724Z,15.70
2018-05-14T00:09:25.297Z,16.43
2018-05-14T00:11:52.756Z,17.87
2018-05-14T00:14:20.304Z,16.87
2018-05-14T00:16:47.861Z,17.17
2018-05-14T00:19:15.329Z,16.27
2018-05-14T00:21:42.881Z,20.63
2018-05-14T00:24:10.357Z,17.57
2018-05-14T00:26:38.609Z,16.73
2018-05-14T00:29:06.173Z,16.43
2018-05-14T00:31:33.637Z,15.93
2018-05-14T00:34:01.914Z,16.33
2018-05-14T00:36:29.472Z,17.80
2018-05-14T00:38:57.033Z,16.17
2018-05-14T00:41:24.589Z,17.60
2018-05-14T00:43:52.153Z,17.80
2018-05-14T00:46:19.712Z,16.83
2018-05-14T00:48:48.050Z,18.80
2018-05-14T00:51:15.523Z,18.00
2018-05-14T00:53:43.004Z,19.90
2018-05-14T00:56:11.245Z,19.93
2018-05-14T00:58:38.704Z,19.47
2018-05-14T01:01:06.165Z,19.23
2018-05-14T01:03:33.645Z,18.37
2018-05-14T01:06:01.125Z,19.80
2018-05-14T01:08:28.683Z,20.97
2018-05-14T01:10:56.240Z,22.40
2018-05-14T01:13:23.800Z,19.87
2018-05-14T01:15:51.268Z,20.63
2018-05-14T01:18:18.738Z,20.50
2018-05-14T01:20:46.973Z,18.50
2018-05-14T01:23:14.439Z,20.50
2018-05-14T01:25:42.009Z,19.63
2018-05-14T01:28:09.704Z,19.80
2018-05-14T01:30:37.088Z,23.33
2018-05-14T01:33:05.409Z,24.17
2018-05-14T01:35:32.884Z,24.50
2018-05-14T01:38:01.148Z,23.87
2018-05-14T01:40:28.628Z,25.60
2018-05-14T01:42:56.875Z,26.23
2018-05-14T01:45:24.342Z,26.10
2018-05-14T01:47:51.812Z,23.97
2018-05-14T01:50:20.077Z,22.17
2018-05-14T01:52:47.637Z,29.87
2018-05-14T01:55:15.868Z,25.03
2018-05-14T01:57:43.361Z,25.97
2018-05-14T02:00:10.929Z,24.97
2018-05-14T02:02:38.392Z,25.87
2018-05-14T02:05:05.861Z,26.13
2018-05-14T02:07:33.395Z,25.23
2018-05-14T02:10:00.965Z,24.40
2018-05-14T02:12:28.433Z,24.27
2018-05-14T02:14:55.980Z,24.00
2018-05-14T02:17:23.544Z,27.30
2018-05-14T02:19:51.097Z,27.10
2018-05-14T02:22:18.664Z,27.50
2018-05-14T02:24:46.225Z,27.20
2018-05-14T02:27:13.785Z,29.47
2018-05-14T02:29:41.340Z,29.03
2018-05-14T02:32:09.573Z,30.80
2018-05-14T02:34:37.042Z,32.77
2018-05-14T02:37:04.496Z,33.27
2018-05-14T02:39:32.056Z,33.17
2018-05-14T02:41:59.509Z,29.30
2018-05-14T02:44:26.975Z,31.53
2018-05-14T02:46:54.568Z,33.13
2018-05-14T02:49:22.136Z,32.43
2018-05-14T02:51:49.711Z,32.13
2018-05-14T02:54:17.269Z,32.30
2018-05-14T02:56:44.729Z,32.77
2018-05-14T02:59:12.273Z,30.77
2018-05-14T03:01:39.862Z,31.57
2018-05-14T03:04:08.089Z,32.40
2018-05-14T03:06:35.556Z,30.90
2018-05-14T03:09:03.017Z,29.63
2018-05-14T03:11:30.489Z,32.17
2018-05-14T03:13:57.967Z,33.53
2018-05-14T03:16:26.195Z,31.10
2018-05-14T03:18:53.648Z,31.77
2018-05-14T03:21:21.138Z,33.33
2018-05-14T03:23:48.596Z,33.63
2018-05-14T03:26:16.157Z,31.03
2018-05-14T03:28:43.718Z,33.07
2018-05-14T03:31:11.190Z,34.03
2018-05-14T03:33:38.736Z,33.13
2018-05-14T03:36:06.201Z,37.87
2018-05-14T03:38:33.752Z,32.80
2018-05-14T03:41:01.217Z,34.47
2018-05-14T03:43:28.765Z,31.33
2018-05-14T03:45:56.328Z,35.87
2018-05-14T03:48:23.811Z,32.37
2018-05-14T03:50:51.273Z,34.40
2018-05-14T03:53:19.501Z,35.97
2018-05-14T03:55:46.982Z,34.17
2018-05-14T03:58:26.321Z,33.03
2018-05-14T04:01:06.535Z,34.03
2018-05-14T04:03:45.804Z,35.00
2018-05-14T04:06:25.277Z,35.30
2018-05-14T04:08:53.521Z,36.07
2018-05-14T04:11:21.080Z,34.63
2018-05-14T04:13:49.369Z,36.57
2018-05-14T04:16:16.857Z,34.47
2018-05-14T04:18:45.101Z,34.87
2018-05-14T04:21:13.344Z,32.20
2018-05-14T04:23:40.836Z,33.20
2018-05-14T04:26:08.401Z,37.03
2018-05-14T04:28:35.865Z,33.43
2018-05-14T04:31:03.329Z,30.53
2018-05-14T04:33:31.649Z,35.00
2018-05-14T04:35:59.149Z,32.17
2018-05-14T04:38:26.713Z,33.80
2018-05-14T04:40:54.264Z,35.67
2018-05-14T04:43:21.734Z,31.37
2018-05-14T04:45:49.202Z,30.97
2018-05-14T04:48:16.745Z,38.20
2018-05-14T04:50:44.220Z,34.67
2018-05-14T04:53:12.453Z,32.07
2018-05-14T04:55:39.944Z,35.07
2018-05-14T04:58:07.500Z,35.83
2018-05-14T05:00:35.061Z,32.93
2018-05-14T05:03:02.524Z,34.90
2018-05-14T05:05:30.760Z,34.10
2018-05-14T05:07:58.261Z,32.73
2018-05-14T05:10:25.912Z,31.07
2018-05-14T05:12:53.276Z,32.20
2018-05-14T05:15:20.837Z,34.97
2018-05-14T05:17:48.309Z,33.40
2018-05-14T05:20:15.773Z,32.67
2018-05-14T05:22:44.062Z,31.47
2018-05-14T05:25:11.486Z,31.47
2018-05-14T05:27:38.953Z,32.90
2018-05-14T05:30:06.508Z,35.23
2018-05-14T05:32:34.065Z,34.20
2018-05-14T05:35:01.625Z,30.77
2018-05-14T05:37:29.092Z,34.07
2018-05-14T05:39:56.549Z,31.73
2018-05-14T05:42:24.019Z,30.37
2018-05-14T05:44:52.281Z,31.67
2018-05-14T05:47:19.837Z,29.00
2018-05-14T05:49:47.317Z,27.17
2018-05-14T05:52:15.557Z,25.90
2018-05-14T05:54:43.135Z,28.20
2018-05-14T05:57:10.687Z,27.67
2018-05-14T05:59:38.253Z,26.90
2018-05-14T06:02:05.713Z,24.43
2018-05-14T06:04:33.274Z,22.67
2018-05-14T06:07:00.745Z,24.73
2018-05-14T06:09:28.317Z,23.43
2018-05-14T06:11:55.849Z,23.10
2018-05-14T06:14:23.318Z,22.17
2018-05-14T06:16:50.871Z,31.50
2018-05-14T06:19:19.144Z,24.23
2018-05-14T06:21:46.660Z,25.87
2018-05-14T06:24:14.121Z,23.90
2018-05-14T06:26:41.679Z,24.67
2018-05-14T06:29:09.146Z,21.77
2018-05-14T06:31:36.851Z,21.07
2018-05-14T06:34:04.164Z,22.40
2018-05-14T06:36:31.724Z,22.57
2018-05-14T06:38:59.217Z,20.43
2018-05-14T06:41:26.776Z,21.10
2018-05-14T06:43:54.249Z,18.67
2018-05-14T06:46:21.712Z,19.07
2018-05-14T06:48:49.176Z,19.97
2018-05-14T06:51:17.399Z,18.93
2018-05-14T06:53:44.893Z,17.67
2018-05-14T06:56:12.454Z,17.57
2018-05-14T06:58:40.021Z,18.57
2018-05-14T07:01:07.565Z,17.40
2018-05-14T07:03:35.030Z,17.83
2018-05-14T07:06:02.585Z,17.40
2018-05-14T07:08:30.061Z,17.40
2018-05-14T07:10:57.605Z,16.03
2018-05-14T07:13:25.080Z,15.67
2018-05-14T07:15:52.548Z,16.80
2018-05-14T07:18:20.778Z,16.30
2018-05-14T07:20:48.249Z,16.23
2018-05-14T07:23:15.816Z,18.77
2018-05-14T07:25:43.276Z,15.73
2018-05-14T07:28:10.841Z,15.23
2018-05-14T07:30:38.393Z,14.87
2018-05-14T07:33:05.861Z,16.60
2018-05-14T07:35:33.413Z,14.30
2018-05-14T07:38:00.874Z,15.47
2018-05-14T07:40:28.507Z,13.53
2018-05-14T07:42:56.769Z,16.30
2018-05-14T07:45:24.269Z,13.70
2018-05-14T07:47:51.738Z,14.23
2018-05-14T07:50:19.200Z,15.27
2018-05-14T07:52:46.746Z,15.80
2018-05-14T07:55:14.222Z,15.57
2018-05-14T07:57:41.720Z,13.77
2018-05-14T08:00:09.224Z,15.43
2018-05-14T08:02:36.742Z,14.70
2018-05-14T08:05:04.250Z,16.07
2018-05-14T08:07:31.860Z,16.47
2018-05-14T08:09:59.360Z,15.50
2018-05-14T08:12:26.879Z,16.60
2018-05-14T08:14:54.386Z,17.57
2018-05-14T08:17:21.944Z,16.03
2018-05-14T08:19:49.417Z,16.33
2018-05-14T08:22:16.958Z,15.43
2018-05-14T08:24:44.525Z,15.83
2018-05-14T08:27:12.804Z,17.70
2018-05-14T08:29:40.273Z,15.20
2018-05-14T08:32:07.995Z,15.67
2018-05-14T08:34:35.372Z,16.73
2018-05-14T08:37:02.882Z,15.30
2018-05-14T08:39:30.300Z,18.63
2018-05-14T08:41:57.768Z,17.10
2018-05-14T08:44:25.997Z,16.87
2018-05-14T08:46:53.641Z,17.40
2018-05-14T08:49:21.145Z,15.87
2018-05-14T08:51:48.713Z,14.93
2018-05-14T08:54:16.394Z,16.23
2018-05-14T08:56:43.821Z,15.20
2018-05-14T08:59:11.388Z,17.97
2018-05-14T09:01:38.957Z,15.60
2018-05-14T09:04:06.508Z,16.40
2018-05-14T09:06:34.143Z,15.73
2018-05-14T09:09:02.245Z,15.50
2018-05-14T09:11:29.708Z,16.33
2018-05-14T09:13:57.177Z,16.00
2018-05-14T09:16:24.716Z,16.50
2018-05-14T09:18:52.277Z,16.20
2018-05-14T09:21:19.749Z,15.07
2018-05-14T09:23:47.320Z,16.70
2018-05-14T09:26:15.572Z,16.13
2018-05-14T09:28:43.045Z,15.37
2018-05-14T09:31:10.613Z,15.27
2018-05-14T09:33:38.152Z,14.90
2018-05-14T09:36:05.621Z,15.97
2018-05-14T09:38:33.089Z,15.97
2018-05-14T09:41:01.337Z,14.77
2018-05-14T09:43:28.797Z,16.53
2018-05-14T09:45:56.373Z,16.93
2018-05-14T09:48:23.852Z,16.50
2018-05-14T09:50:52.084Z,16.07
2018-05-14T09:53:19.779Z,15.93
2018-05-14T09:55:47.034Z,16.53
2018-05-14T09:58:14.497Z,15.83
2018-05-14T10:00:42.761Z,15.30
2018-05-14T10:03:10.312Z,17.07
2018-05-14T10:05:37.876Z,15.73
2018-05-14T10:08:05.437Z,17.90
2018-05-14T10:10:32.915Z,16.70
2018-05-14T10:13:00.379Z,15.67
2018-05-14T10:15:28.609Z,18.57
2018-05-14T10:17:56.091Z,16.90
2018-05-14T10:20:25.712Z,17.73
2018-05-14T10:22:53.261Z,18.90
2018-05-14T10:25:20.721Z,17.33
2018-05-14T10:27:48.273Z,17.03
2018-05-14T10:30:16.504Z,17.63
2018-05-14T10:32:43.972Z,18.73
2018-05-14T10:35:11.469Z,18.73
2018-05-14T10:37:39.020Z,18.23
2018-05-14T10:40:06.489Z,17.77
2018-05-14T10:42:34.104Z,18.63
2018-05-14T10:45:01.605Z,19.67
2018-05-14T10:47:29.169Z,21.33
2018-05-14T10:49:56.627Z,19.27
2018-05-14T10:52:24.096Z,17.73
2018-05-14T10:54:51.564Z,17.53
2018-05-14T10:57:19.799Z,17.53
2018-05-14T10:59:47.264Z,19.67
2018-05-14T11:02:14.833Z,17.80
2018-05-14T11:04:42.388Z,18.80
2018-05-14T11:07:09.853Z,21.10
2018-05-14T11:09:37.425Z,18.57
2018-05-14T11:12:04.893Z,15.37
2018-05-14T11:14:33.148Z,16.80
2018-05-14T11:17:00.617Z,15.50
2018-05-14T11:19:28.084Z,15.10
2018-05-14T11:21:55.546Z,15.77
2018-05-14T11:24:23.780Z,17.53
2018-05-14T11:26:51.253Z,16.43
2018-05-14T11:29:18.825Z,15.97
2018-05-14T11:31:46.373Z,16.43
2018-05-14T11:34:13.944Z,15.37
2018-05-14T11:36:41.414Z,16.07
2018-05-14T11:39:08.964Z,16.50
2018-05-14T11:41:37.556Z,17.63
2018-05-14T11:44:05.101Z,17.17
2018-05-14T11:46:32.571Z,18.63
2018-05-14T11:49:00.037Z,18.50
2018-05-14T11:51:27.584Z,17.13
2018-05-14T11:53:55.046Z,17.77
2018-05-14T11:56:22.593Z,17.27
2018-05-14T11:58:50.158Z,18.20
2018-05-14T12:01:17.637Z,17.13
2018-05-14T12:03:45.873Z,16.67
2018-05-14T12:06:13.412Z,16.27
2018-05-14T12:08:40.870Z,16.97
2018-05-14T12:11:08.368Z,18.07
2018-05-14T12:13:35.929Z,16.53
2018-05-14T12:16:03.532Z,18.43
2018-05-14T12:18:31.052Z,19.10
2018-05-14T12:20:58.567Z,20.70
2018-05-14T12:23:26.024Z,20.73
2018-05-14T12:25:53.591Z,21.57
2018-05-14T12:28:21.086Z,19.93
2018-05-14T12:30:48.545Z,19.30
2018-05-14T12:33:16.020Z,22.23
2018-05-14T12:35:43.489Z,20.60
2018-05-14T12:38:11.724Z,21.63
2018-05-14T12:40:39.189Z,22.37
2018-05-14T12:43:06.758Z,23.80
2018-05-14T12:45:34.233Z,24.47
2018-05-14T12:48:01.777Z,25.10
2018-05-14T12:50:29.337Z,21.77
2018-05-14T12:52:56.900Z,24.07
2018-05-14T12:55:24.362Z,20.43
2018-05-14T12:57:51.830Z,21.63
2018-05-14T13:00:20.074Z,21.83
2018-05-14T13:02:47.539Z,22.17
2018-05-14T13:05:15.009Z,20.67
2018-05-14T13:07:42.520Z,24.30
2018-05-14T13:10:10.018Z,23.63
2018-05-14T13:12:37.485Z,20.23
2018-05-14T13:15:04.953Z,20.13
2018-05-14T13:17:32.421Z,23.87
2018-05-14T13:20:00.675Z,19.53
2018-05-14T13:22:28.260Z,19.73
2018-05-14T13:24:56.571Z,20.03
2018-05-14T13:27:24.072Z,19.77
2018-05-14T13:29:51.544Z,21.60
2018-05-14T13:32:19.089Z,23.00
2018-05-14T13:34:46.552Z,20.87
2018-05-14T13:37:14.109Z,20.60
2018-05-14T13:39:41.671Z,22.00
2018-05-14T13:42:09.137Z,23.07
2018-05-14T13:44:36.716Z,21.13
2018-05-14T13:47:04.257Z,22.73
2018-05-14T13:49:31.730Z,21.33
2018-05-14T13:51:59.981Z,22.43
2018-05-14T13:54:27.448Z,20.83
2018-05-14T13:56:54.913Z,17.00
2018-05-14T13:59:22.462Z,16.87
2018-05-14T14:01:49.929Z,18.90
2018-05-14T14:04:17.490Z,22.60
2018-05-14T14:06:45.049Z,23.10
2018-05-14T14:09:12.604Z,23.87
2018-05-14T14:11:40.169Z,20.70
2018-05-14T14:14:07.641Z,22.67
2018-05-14T14:16:35.901Z,20.77
2018-05-14T14:19:03.456Z,19.97
2018-05-14T14:21:31.020Z,17.20
2018-05-14T14:23:58.626Z,16.73
2018-05-14T14:26:26.775Z,18.57
2018-05-14T14:28:54.229Z,20.43
2018-05-14T14:31:22.466Z,22.57
2018-05-14T14:33:50.003Z,16.80
2018-05-14T14:36:17.584Z,17.67
2018-05-14T14:38:45.030Z,14.03
2018-05-14T14:41:12.526Z,15.13
2018-05-14T14:43:40.076Z,10.90
2018-05-14T14:46:07.644Z,10.30
2018-05-14T14:48:35.122Z,12.53
2018-05-14T14:51:03.438Z,9.03
2018-05-14T14:53:31.017Z,9.33
2018-05-14T14:55:58.497Z,10.03
2018-05-14T14:58:26.089Z,9.57
2018-05-14T15:00:53.537Z,8.27
2018-05-14T15:03:20.995Z,9.97
2018-05-14T15:05:49.259Z,12.43
2018-05-14T15:08:16.813Z,10.33
2018-05-14T15:10:44.377Z,12.37
2018-05-14T15:13:11.840Z,9.77
2018-05-14T15:15:39.393Z,4.83
2018-05-14T15:18:06.953Z,6.03
2018-05-14T15:20:34.511Z,4.57
2018-05-14T15:23:02.078Z,5.67
2018-05-14T15:25:29.545Z,5.30
2018-05-14T15:27:57.088Z,7.10
2018-05-14T15:30:24.649Z,8.07
2018-05-14T15:32:52.116Z,8.63
2018-05-14T15:35:19.573Z,8.07
2018-05-14T15:37:47.045Z,6.03
2018-05-14T15:40:14.501Z,6.63
2018-05-14T15:42:42.747Z,8.13
2018-05-14T15:45:10.204Z,10.40
2018-05-14T15:47:37.664Z,4.17
2018-05-14T15:50:05.158Z,6.20
2018-05-14T15:52:32.605Z,4.03
2018-05-14T15:55:00.869Z,4.30
2018-05-14T15:57:28.333Z,4.67
2018-05-14T15:59:55.796Z,5.37
2018-05-14T16:02:23.261Z,4.20
2018-05-14T16:04:50.801Z,4.73
2018-05-14T16:07:18.269Z,4.60
2018-05-14T16:09:45.724Z,5.70
2018-05-14T16:12:13.277Z,5.43
2018-05-14T16:14:40.916Z,7.47
2018-05-14T16:17:08.406Z,5.83
2018-05-14T16:19:36.880Z,6.80
2018-05-14T16:22:04.503Z,6.43
2018-05-14T16:24:32.001Z,5.90
2018-05-14T16:26:59.461Z,7.70
2018-05-14T16:29:27.021Z,6.87
2018-05-14T16:31:54.586Z,6.47
2018-05-14T16:34:22.060Z,4.23
2018-05-14T16:36:50.316Z,3.90
2018-05-14T16:39:17.774Z,3.60
2018-05-14T16:41:45.997Z,4.70
2018-05-14T16:44:13.513Z,3.17
2018-05-14T16:46:40.972Z,5.17
2018-05-14T16:49:08.436Z,4.53
2018-05-14T16:51:35.981Z,3.50
2018-05-14T16:54:03.440Z,3.67
2018-05-14T16:56:30.901Z,2.30
2018-05-14T16:58:58.361Z,3.93
2018-05-14T17:01:25.827Z,2.80
2018-05-14T17:03:53.377Z,5.17
2018-05-14T17:06:20.849Z,4.23
2018-05-14T17:08:48.307Z,3.20
2018-05-14T17:11:15.760Z,3.97
2018-05-14T17:13:43.228Z,4.63
2018-05-14T17:16:10.692Z,3.73
2018-05-14T17:18:38.149Z,6.50
2018-05-14T17:21:06.374Z,3.07
2018-05-14T17:23:33.861Z,5.33
2018-05-14T17:26:01.426Z,7.03
2018-05-14T17:28:29.648Z,6.93
2018-05-14T17:30:57.157Z,5.23
2018-05-14T17:33:24.617Z,5.53
2018-05-14T17:35:52.172Z,4.33
2018-05-14T17:38:19.741Z,2.17
2018-05-14T17:40:47.301Z,5.53
2018-05-14T17:43:14.857Z,3.60
2018-05-14T17:45:42.317Z,6.97
2018-05-14T17:48:09.777Z,4.03
2018-05-14T17:50:37.337Z,5.13
2018-05-14T17:53:04.889Z,6.10
2018-05-14T17:55:32.456Z,2.87
2018-05-14T17:58:00.013Z,6.13
2018-05-14T18:00:27.477Z,6.03
2018-05-14T18:02:54.936Z,3.50
2018-05-14T18:05:22.405Z,5.50
2018-05-14T18:07:49.865Z,3.33
2018-05-14T18:10:18.093Z,6.07
2018-05-14T18:12:45.550Z,2.70
2018-05-14T18:15:13.036Z,3.17
2018-05-14T18:17:40.631Z,2.63
2018-05-14T18:20:13.668Z,3.73
2018-05-14T18:22:41.170Z,5.33
2018-05-14T18:25:14.237Z,3.23
2018-05-14T18:27:47.476Z,3.57
2018-05-14T18:30:14.941Z,4.07
2018-05-14T18:32:48.168Z,4.93
2018-05-14T18:35:19.969Z,5.37
2018-05-14T18:37:48.196Z,4.93
2018-05-14T18:40:15.738Z,5.47
2018-05-14T18:42:43.237Z,3.13
2018-05-14T18:45:10.692Z,2.70
2018-05-14T18:47:38.256Z,3.37
2018-05-14T18:50:05.821Z,3.90
2018-05-14T18:52:33.277Z,3.57
2018-05-14T18:55:00.742Z,4.47
2018-05-14T18:57:28.293Z,2.87
2018-05-14T18:59:55.853Z,6.60
2018-05-14T19:02:23.334Z,3.87
2018-05-14T19:04:51.573Z,7.30
2018-05-14T19:07:19.035Z,5.60
2018-05-14T19:09:46.614Z,3.23
2018-05-14T19:12:14.166Z,5.83
2018-05-14T19:14:41.625Z,3.60
2018-05-14T19:17:14.875Z,3.50
2018-05-14T19:19:42.376Z,5.10
2018-05-14T19:22:09.838Z,4.87
2018-05-14T19:24:37.397Z,5.97
2018-05-14T19:27:04.862Z,4.70
2018-05-14T19:29:34.113Z,6.67
2018-05-14T19:32:01.577Z,4.43
2018-05-14T19:34:34.854Z,3.90
2018-05-14T19:37:02.324Z,3.83
2018-05-14T19:39:35.368Z,4.83
2018-05-14T19:42:03.489Z,3.97
2018-05-14T19:44:30.969Z,3.53
2018-05-14T19:46:58.451Z,3.10
2018-05-14T19:49:26.043Z,6.03
2018-05-14T19:51:53.478Z,4.40
2018-05-14T19:54:20.940Z,5.43
2018-05-14T19:56:48.398Z,7.93
2018-05-14T19:59:15.853Z,6.70
2018-05-14T20:01:43.322Z,6.67
2018-05-14T20:04:11.548Z,10.83
2018-05-14T20:06:39.041Z,5.40
2018-05-14T20:09:06.592Z,9.23
2018-05-14T20:11:34.148Z,6.53
2018-05-14T20:14:01.714Z,7.83
2018-05-14T20:16:29.272Z,7.07
2018-05-14T20:18:56.833Z,7.23
2018-05-14T20:21:24.300Z,7.53
2018-05-14T20:23:52.528Z,8.07
2018-05-14T20:26:20.027Z,9.43
2018-05-14T20:28:47.508Z,7.23
2018-05-14T20:31:15.774Z,7.33
2018-05-14T20:33:43.994Z,13.63
2018-05-14T20:36:11.500Z,12.73
2018-05-14T20:38:39.769Z,6.97
2018-05-14T20:41:07.240Z,12.57
2018-05-14T20:43:34.705Z,8.60
2018-05-14T20:46:02.164Z,6.90
2018-05-14T20:48:29.619Z,7.97
2018-05-14T20:50:57.171Z,7.83
2018-05-14T20:53:25.441Z,8.50
2018-05-14T20:55:53.009Z,7.97
2018-05-14T20:58:20.472Z,7.67
2018-05-14T21:00:48.030Z,7.13
2018-05-14T21:03:15.480Z,10.83
2018-05-14T21:05:42.948Z,10.73
2018-05-14T21:08:10.410Z,7.13
2018-05-14T21:10:37.869Z,8.93
2018-05-14T21:13:05.331Z,8.77
2018-05-14T21:15:32.785Z,8.57
2018-05-14T21:18:00.241Z,9.03
2018-05-14T21:20:27.788Z,6.57
2018-05-14T21:22:55.348Z,6.60
2018-05-14T21:25:22.819Z,7.03
2018-05-14T21:27:50.365Z,6.37
2018-05-14T21:30:17.884Z,7.43
2018-05-14T21:32:45.381Z,12.10
2018-05-14T21:35:12.943Z,9.10
2018-05-14T21:37:40.487Z,10.50
2018-05-14T21:40:07.873Z,6.67
2018-05-14T21:42:35.333Z,6.73
2018-05-14T21:45:02.801Z,9.00
2018-05-14T21:47:31.057Z,7.63
2018-05-14T21:49:59.283Z,6.60
2018-05-14T21:52:26.746Z,7.43
2018-05-14T21:54:54.206Z,6.63
2018-05-14T21:57:21.765Z,6.73
2018-05-14T21:59:49.228Z,7.97
2018-05-14T22:02:16.720Z,6.83
2018-05-14T22:04:44.318Z,6.73
2018-05-14T22:07:11.844Z,6.40
2018-05-14T22:09:39.405Z,7.23
2018-05-14T22:12:06.873Z,7.63
2018-05-14T22:14:34.336Z,7.27
2018-05-14T22:17:01.877Z,6.43
2018-05-14T22:19:29.441Z,7.23
2018-05-14T22:21:56.907Z,7.30
2018-05-14T22:24:24.369Z,7.03
2018-05-14T22:26:51.917Z,6.33
2018-05-14T22:29:19.385Z,11.23
2018-05-14T22:31:46.933Z,9.87
2018-05-14T22:34:14.400Z,10.17
2018-05-14T22:36:41.961Z,10.73
2018-05-14T22:39:10.229Z,8.30
2018-05-14T22:41:37.750Z,7.97
2018-05-14T22:44:05.213Z,10.17
2018-05-14T22:46:32.709Z,11.77
2018-05-14T22:49:00.269Z,8.67
2018-05-14T22:51:27.740Z,8.40
2018-05-14T22:53:55.209Z,11.93
2018-05-14T22:56:23.441Z,7.63
2018-05-14T22:58:50.917Z,9.30
2018-05-14T23:01:18.481Z,11.73
2018-05-14T23:03:45.956Z,27.27
2018-05-14T23:06:13.420Z,23.63
2018-05-14T23:08:41.673Z,9.33
2018-05-14T23:11:09.144Z,15.47
2018-05-14T23:13:36.605Z,13.67
2018-05-14T23:16:04.157Z,11.10
2018-05-14T23:18:31.620Z,14.67
2018-05-14T23:20:59.125Z,11.20
2018-05-14T23:23:26.629Z,15.37
2018-05-14T23:25:54.189Z,12.90
2018-05-14T23:28:21.661Z,12.90
2018-05-14T23:30:49.201Z,12.00
2018-05-14T23:33:16.662Z,12.47
2018-05-14T23:35:44.124Z,12.27
2018-05-14T23:38:12.393Z,11.23
2018-05-14T23:40:39.859Z,12.00
2018-05-14T23:43:07.419Z,13.00
2018-05-14T23:45:34.885Z,13.83
2018-05-14T23:48:02.437Z,14.30
2018-05-14T23:50:29.997Z,16.77
2018-05-14T23:52:57.467Z,15.03
2018-05-14T23:55:25.017Z,14.17
2018-05-14T23:57:52.576Z,13.63
